Hibbing, MN (55746)

5:10 AM CDT on August 02, 2014 (GMT -0500)
Chisholm-hibbing (KHIB) Elev 1352 ft | 47.39 °N, 92.84 °W | Change Station

Current weather conditions updated 17 minutes ago

Fog
Fog
48 °F
Feels Like 48 °F
N
0
Wind Variable Wind from North

Today is forecast to be nearly the same temperature as yesterday. Isolated thunderstorms tonight.

Today
High -- | Low -- °F
--% Chance of Precip.
Yesterday
High -- | Low -- °F
Precip. -- in
5:51 AM 8:43 PM
Waxing Crescent, 34% visible
Pressure 30.12 in
Visibility 0.2 miles
Clouds
Dew Point 47 °F
Humidity 96%
Rainfall 0.00 in
Snow Depth Not available.
UV Not available.
Pollen 5.90 out of 12
Air Quality Not available.
Flu Activity Not available.
METAR KHIB 020953Z AUTO 00000KT 1/4SM FG VV001 09/08 A3012 RMK AO2 SLP198 T00890083

More Conditions Fewer Conditions

Pressure 30.12 in
Visibility 0.2 miles
Clouds
Dew Point 47 °F
Humidity 96%
Rainfall 0.00 in
Snow Depth Not available.
UV Not available.
Pollen 5.90 out of 12
Air Quality Not available.
Flu Activity Not available.
METAR KHIB 020953Z AUTO 00000KT 1/4SM FG VV001 09/08 A3012 RMK AO2 SLP198 T00890083

More Conditions Fewer Conditions

10-Day Weather Forecast

Almanac

Astronomy

Aug. 02, 2014 Rise Set
Actual Time 5:51 AM CDT 8:43 PM CDT
Civil Twilight 5:15 AM CDT 9:19 PM CDT
Nautical Twilight 4:29 AM CDT 10:04 PM CDT
Astronomical Twilight 3:34 AM CDT 10:59 PM CDT
Moon 12:43 PM CDT 11:31 PM CDT
Length of Visible Light 16h 04m
Length of Day
14h 52m
Tomorrow will be 2m 42s shorter.
Waxing Crescent, 34% of the Moon is Illuminated
Today
Waxing Crescent
Aug 3
First Quarter
Aug 10
Full
Aug 17
Last Quarter
Aug 25
New

Today's Extremes

State Highs State Lows

Community

WunderPhotos

Upload Photos

1,739,850 photos uploaded!

Nearby

Snow Depth

Station Depth Elevation
No new snow has been reported.

Earthquake Activity

City Distance Mag. Time & Date
No recent earthquake activity has been reported nearby.
Minimum magnitude displayed is 2.5.

Coastal Water Temperatures

Place Temperature
No Stations Reporting

Nearby Weather Stations

There are no personal weather stations in this area.